sensor_id;sensor_type;location;lat;lon;timestamp;P1;durP1;ratioP1;P2;durP2;ratioP2
27209;SDS011;14721;42.668;23.386;2024-03-02T00:01:04;29.27;;;12.83;;
27209;SDS011;14721;42.668;23.386;2024-03-02T00:03:30;35.80;;;14.47;;
27209;SDS011;14721;42.668;23.386;2024-03-02T00:05:55;34.97;;;15.33;;
27209;SDS011;14721;42.668;23.386;2024-03-02T00:08:22;28.93;;;13.77;;
27209;SDS011;14721;42.668;23.386;2024-03-02T00:10:50;30.43;;;14.30;;
27209;SDS011;14721;42.668;23.386;2024-03-02T00:13:16;31.80;;;14.20;;
27209;SDS011;14721;42.668;23.386;2024-03-02T00:15:48;34.67;;;13.00;;
27209;SDS011;14721;42.668;23.386;2024-03-02T00:18:23;33.50;;;13.53;;
27209;SDS011;14721;42.668;23.386;2024-03-02T00:20:56;29.27;;;12.87;;
27209;SDS011;14721;42.668;23.386;2024-03-02T00:23:22;30.87;;;14.17;;
27209;SDS011;14721;42.668;23.386;2024-03-02T00:25:50;31.23;;;14.43;;
27209;SDS011;14721;42.668;23.386;2024-03-02T00:28:20;34.03;;;14.80;;
27209;SDS011;14721;42.668;23.386;2024-03-02T00:33:33;28.27;;;12.90;;
27209;SDS011;14721;42.668;23.386;2024-03-02T00:36:01;34.03;;;13.20;;
27209;SDS011;14721;42.668;23.386;2024-03-02T00:38:28;32.87;;;14.40;;
27209;SDS011;14721;42.668;23.386;2024-03-02T00:40:54;33.90;;;14.07;;
27209;SDS011;14721;42.668;23.386;2024-03-02T00:46:18;28.07;;;13.73;;
27209;SDS011;14721;42.668;23.386;2024-03-02T00:48:47;29.47;;;13.47;;
27209;SDS011;14721;42.668;23.386;2024-03-02T00:51:19;35.77;;;14.80;;
27209;SDS011;14721;42.668;23.386;2024-03-02T00:53:45;26.77;;;12.10;;
27209;SDS011;14721;42.668;23.386;2024-03-02T00:56:11;32.23;;;12.70;;
27209;SDS011;14721;42.668;23.386;2024-03-02T00:58:38;29.40;;;13.37;;
27209;SDS011;14721;42.668;23.386;2024-03-02T01:01:04;30.50;;;13.73;;
27209;SDS011;14721;42.668;23.386;2024-03-02T01:03:31;37.67;;;14.70;;
27209;SDS011;14721;42.668;23.386;2024-03-02T01:06:00;35.00;;;13.83;;
27209;SDS011;14721;42.668;23.386;2024-03-02T01:08:27;32.67;;;13.50;;
27209;SDS011;14721;42.668;23.386;2024-03-02T01:10:53;28.83;;;13.37;;
27209;SDS011;14721;42.668;23.386;2024-03-02T01:13:21;29.67;;;12.73;;
27209;SDS011;14721;42.668;23.386;2024-03-02T01:15:50;31.33;;;13.37;;
27209;SDS011;14721;42.668;23.386;2024-03-02T01:18:16;29.87;;;13.77;;
27209;SDS011;14721;42.668;23.386;2024-03-02T01:20:41;33.17;;;13.17;;
27209;SDS011;14721;42.668;23.386;2024-03-02T01:23:07;31.53;;;13.77;;
27209;SDS011;14721;42.668;23.386;2024-03-02T01:28:17;34.60;;;14.60;;
27209;SDS011;14721;42.668;23.386;2024-03-02T01:30:44;33.90;;;14.17;;
27209;SDS011;14721;42.668;23.386;2024-03-02T01:33:10;36.40;;;13.73;;
27209;SDS011;14721;42.668;23.386;2024-03-02T01:35:37;30.50;;;13.93;;
27209;SDS011;14721;42.668;23.386;2024-03-02T01:38:03;36.60;;;13.17;;
27209;SDS011;14721;42.668;23.386;2024-03-02T01:40:31;32.67;;;13.10;;
27209;SDS011;14721;42.668;23.386;2024-03-02T01:42:58;33.10;;;13.27;;
27209;SDS011;14721;42.668;23.386;2024-03-02T01:45:24;33.43;;;14.50;;
27209;SDS011;14721;42.668;23.386;2024-03-02T01:47:49;33.60;;;13.60;;
27209;SDS011;14721;42.668;23.386;2024-03-02T01:50:15;35.80;;;14.87;;
27209;SDS011;14721;42.668;23.386;2024-03-02T01:52:49;33.87;;;13.53;;
27209;SDS011;14721;42.668;23.386;2024-03-02T01:55:14;29.13;;;14.27;;
27209;SDS011;14721;42.668;23.386;2024-03-02T01:57:40;33.87;;;14.03;;
27209;SDS011;14721;42.668;23.386;2024-03-02T02:00:06;30.50;;;14.77;;
27209;SDS011;14721;42.668;23.386;2024-03-02T02:02:32;33.87;;;14.63;;
27209;SDS011;14721;42.668;23.386;2024-03-02T02:04:58;33.73;;;14.13;;
27209;SDS011;14721;42.668;23.386;2024-03-02T02:07:23;33.93;;;14.33;;
27209;SDS011;14721;42.668;23.386;2024-03-02T02:09:49;34.77;;;13.93;;
27209;SDS011;14721;42.668;23.386;2024-03-02T02:12:14;37.73;;;15.70;;
27209;SDS011;14721;42.668;23.386;2024-03-02T02:14:46;29.47;;;13.33;;
27209;SDS011;14721;42.668;23.386;2024-03-02T02:17:16;35.63;;;15.43;;
27209;SDS011;14721;42.668;23.386;2024-03-02T02:19:42;34.40;;;15.00;;
27209;SDS011;14721;42.668;23.386;2024-03-02T02:22:08;34.43;;;14.03;;
27209;SDS011;14721;42.668;23.386;2024-03-02T02:24:40;33.97;;;14.87;;
27209;SDS011;14721;42.668;23.386;2024-03-02T02:27:07;37.20;;;14.00;;
27209;SDS011;14721;42.668;23.386;2024-03-02T02:29:33;32.30;;;15.50;;
27209;SDS011;14721;42.668;23.386;2024-03-02T02:31:59;35.20;;;15.57;;
27209;SDS011;14721;42.668;23.386;2024-03-02T02:34:26;38.53;;;15.37;;
27209;SDS011;14721;42.668;23.386;2024-03-02T02:36:51;35.33;;;14.27;;
27209;SDS011;14721;42.668;23.386;2024-03-02T02:39:18;37.73;;;14.70;;
27209;SDS011;14721;42.668;23.386;2024-03-02T02:41:47;40.70;;;13.97;;
27209;SDS011;14721;42.668;23.386;2024-03-02T02:44:13;36.27;;;14.10;;
27209;SDS011;14721;42.668;23.386;2024-03-02T02:46:39;34.50;;;15.20;;
27209;SDS011;14721;42.668;23.386;2024-03-02T02:49:05;33.40;;;15.57;;
27209;SDS011;14721;42.668;23.386;2024-03-02T02:51:31;40.03;;;14.60;;
27209;SDS011;14721;42.668;23.386;2024-03-02T02:53:58;31.47;;;14.17;;
27209;SDS011;14721;42.668;23.386;2024-03-02T02:56:23;36.57;;;14.50;;
27209;SDS011;14721;42.668;23.386;2024-03-02T02:58:49;37.40;;;15.57;;
27209;SDS011;14721;42.668;23.386;2024-03-02T03:01:15;38.03;;;15.43;;
27209;SDS011;14721;42.668;23.386;2024-03-02T03:03:44;36.30;;;15.93;;
27209;SDS011;14721;42.668;23.386;2024-03-02T03:06:10;33.70;;;15.27;;
27209;SDS011;14721;42.668;23.386;2024-03-02T03:08:36;35.83;;;14.83;;
27209;SDS011;14721;42.668;23.386;2024-03-02T03:11:02;35.93;;;15.70;;
27209;SDS011;14721;42.668;23.386;2024-03-02T03:13:27;35.20;;;14.47;;
27209;SDS011;14721;42.668;23.386;2024-03-02T03:15:58;38.60;;;15.73;;
27209;SDS011;14721;42.668;23.386;2024-03-02T03:19:16;37.77;;;15.30;;
27209;SDS011;14721;42.668;23.386;2024-03-02T03:21:43;34.87;;;16.20;;
27209;SDS011;14721;42.668;23.386;2024-03-02T03:24:09;32.73;;;14.27;;
27209;SDS011;14721;42.668;23.386;2024-03-02T03:26:37;34.37;;;14.70;;
27209;SDS011;14721;42.668;23.386;2024-03-02T03:29:08;36.10;;;15.37;;
27209;SDS011;14721;42.668;23.386;2024-03-02T03:31:35;44.20;;;14.43;;
27209;SDS011;14721;42.668;23.386;2024-03-02T03:34:02;36.43;;;17.00;;
27209;SDS011;14721;42.668;23.386;2024-03-02T03:36:29;33.63;;;15.07;;
27209;SDS011;14721;42.668;23.386;2024-03-02T03:38:54;34.93;;;14.20;;
27209;SDS011;14721;42.668;23.386;2024-03-02T03:41:20;31.30;;;13.70;;
27209;SDS011;14721;42.668;23.386;2024-03-02T03:43:46;37.83;;;14.57;;
27209;SDS011;14721;42.668;23.386;2024-03-02T03:46:11;38.20;;;17.37;;
27209;SDS011;14721;42.668;23.386;2024-03-02T03:48:37;30.40;;;12.50;;
27209;SDS011;14721;42.668;23.386;2024-03-02T03:51:02;31.83;;;13.77;;
27209;SDS011;14721;42.668;23.386;2024-03-02T03:53:28;32.87;;;14.37;;
27209;SDS011;14721;42.668;23.386;2024-03-02T03:55:53;31.27;;;14.20;;
27209;SDS011;14721;42.668;23.386;2024-03-02T03:58:20;33.57;;;13.97;;
27209;SDS011;14721;42.668;23.386;2024-03-02T04:00:46;31.30;;;13.47;;
27209;SDS011;14721;42.668;23.386;2024-03-02T04:03:11;30.53;;;14.47;;
27209;SDS011;14721;42.668;23.386;2024-03-02T04:05:41;35.23;;;16.07;;
27209;SDS011;14721;42.668;23.386;2024-03-02T04:08:08;40.23;;;16.60;;
27209;SDS011;14721;42.668;23.386;2024-03-02T04:10:33;31.70;;;13.37;;
27209;SDS011;14721;42.668;23.386;2024-03-02T04:13:00;37.70;;;15.87;;
27209;SDS011;14721;42.668;23.386;2024-03-02T04:15:27;33.13;;;14.27;;
27209;SDS011;14721;42.668;23.386;2024-03-02T04:17:53;33.57;;;15.03;;
27209;SDS011;14721;42.668;23.386;2024-03-02T04:20:18;34.17;;;15.60;;
27209;SDS011;14721;42.668;23.386;2024-03-02T04:22:45;37.50;;;14.90;;
27209;SDS011;14721;42.668;23.386;2024-03-02T04:25:10;38.23;;;17.00;;
27209;SDS011;14721;42.668;23.386;2024-03-02T04:27:36;31.37;;;15.03;;
27209;SDS011;14721;42.668;23.386;2024-03-02T04:30:02;36.23;;;16.20;;
27209;SDS011;14721;42.668;23.386;2024-03-02T04:32:31;42.80;;;15.07;;
27209;SDS011;14721;42.668;23.386;2024-03-02T04:34:57;39.10;;;15.90;;
27209;SDS011;14721;42.668;23.386;2024-03-02T04:37:33;30.43;;;14.10;;
27209;SDS011;14721;42.668;23.386;2024-03-02T04:40:02;35.03;;;15.57;;
27209;SDS011;14721;42.668;23.386;2024-03-02T04:42:28;34.90;;;14.03;;
27209;SDS011;14721;42.668;23.386;2024-03-02T04:44:53;36.63;;;14.90;;
27209;SDS011;14721;42.668;23.386;2024-03-02T04:47:19;37.57;;;15.47;;
27209;SDS011;14721;42.668;23.386;2024-03-02T04:49:44;38.97;;;14.67;;
27209;SDS011;14721;42.668;23.386;2024-03-02T04:52:11;43.27;;;14.60;;
27209;SDS011;14721;42.668;23.386;2024-03-02T04:54:36;33.10;;;14.30;;
27209;SDS011;14721;42.668;23.386;2024-03-02T04:57:22;39.10;;;16.27;;
27209;SDS011;14721;42.668;23.386;2024-03-02T04:59:47;36.67;;;15.13;;
27209;SDS011;14721;42.668;23.386;2024-03-02T05:02:13;39.13;;;14.90;;
27209;SDS011;14721;42.668;23.386;2024-03-02T05:04:39;41.73;;;16.80;;
27209;SDS011;14721;42.668;23.386;2024-03-02T05:07:05;40.20;;;15.60;;
27209;SDS011;14721;42.668;23.386;2024-03-02T05:09:32;41.00;;;16.10;;
27209;SDS011;14721;42.668;23.386;2024-03-02T05:11:57;39.93;;;16.87;;
27209;SDS011;14721;42.668;23.386;2024-03-02T05:14:43;40.70;;;15.00;;
27209;SDS011;14721;42.668;23.386;2024-03-02T05:17:09;39.93;;;16.37;;
27209;SDS011;14721;42.668;23.386;2024-03-02T05:19:34;35.83;;;13.40;;
27209;SDS011;14721;42.668;23.386;2024-03-02T05:22:00;36.13;;;16.17;;
27209;SDS011;14721;42.668;23.386;2024-03-02T05:24:25;46.13;;;16.60;;
27209;SDS011;14721;42.668;23.386;2024-03-02T05:26:54;40.77;;;16.17;;
27209;SDS011;14721;42.668;23.386;2024-03-02T05:29:19;39.70;;;16.03;;
27209;SDS011;14721;42.668;23.386;2024-03-02T05:31:45;47.70;;;17.03;;
27209;SDS011;14721;42.668;23.386;2024-03-02T05:34:11;40.43;;;17.87;;
27209;SDS011;14721;42.668;23.386;2024-03-02T05:36:36;47.83;;;18.10;;
27209;SDS011;14721;42.668;23.386;2024-03-02T05:39:04;45.27;;;19.03;;
27209;SDS011;14721;42.668;23.386;2024-03-02T05:41:31;46.33;;;17.27;;
27209;SDS011;14721;42.668;23.386;2024-03-02T05:43:57;47.53;;;17.53;;
27209;SDS011;14721;42.668;23.386;2024-03-02T05:46:22;43.13;;;17.13;;
27209;SDS011;14721;42.668;23.386;2024-03-02T05:48:48;47.50;;;17.17;;
27209;SDS011;14721;42.668;23.386;2024-03-02T05:51:13;47.47;;;17.70;;
27209;SDS011;14721;42.668;23.386;2024-03-02T05:53:42;47.37;;;17.07;;
27209;SDS011;14721;42.668;23.386;2024-03-02T05:56:08;45.33;;;16.87;;
27209;SDS011;14721;42.668;23.386;2024-03-02T05:58:33;49.87;;;19.37;;
27209;SDS011;14721;42.668;23.386;2024-03-02T06:01:17;50.73;;;18.30;;
27209;SDS011;14721;42.668;23.386;2024-03-02T06:03:43;43.17;;;18.33;;
27209;SDS011;14721;42.668;23.386;2024-03-02T06:06:09;45.50;;;17.03;;
27209;SDS011;14721;42.668;23.386;2024-03-02T06:08:35;56.87;;;18.93;;
27209;SDS011;14721;42.668;23.386;2024-03-02T06:11:00;44.20;;;16.73;;
27209;SDS011;14721;42.668;23.386;2024-03-02T06:13:27;47.63;;;17.27;;
27209;SDS011;14721;42.668;23.386;2024-03-02T06:15:53;44.47;;;17.60;;
27209;SDS011;14721;42.668;23.386;2024-03-02T06:18:18;50.23;;;17.43;;
27209;SDS011;14721;42.668;23.386;2024-03-02T06:20:45;55.63;;;19.73;;
27209;SDS011;14721;42.668;23.386;2024-03-02T06:23:11;50.47;;;18.73;;
27209;SDS011;14721;42.668;23.386;2024-03-02T06:25:36;46.77;;;17.23;;
27209;SDS011;14721;42.668;23.386;2024-03-02T06:28:02;45.33;;;16.77;;
27209;SDS011;14721;42.668;23.386;2024-03-02T06:30:29;50.27;;;17.83;;
27209;SDS011;14721;42.668;23.386;2024-03-02T06:32:54;46.30;;;16.63;;
27209;SDS011;14721;42.668;23.386;2024-03-02T06:35:20;43.00;;;17.10;;
27209;SDS011;14721;42.668;23.386;2024-03-02T06:37:45;53.13;;;19.00;;
27209;SDS011;14721;42.668;23.386;2024-03-02T06:40:11;49.67;;;18.10;;
27209;SDS011;14721;42.668;23.386;2024-03-02T06:42:36;51.87;;;18.07;;
27209;SDS011;14721;42.668;23.386;2024-03-02T06:45:04;42.87;;;16.37;;
27209;SDS011;14721;42.668;23.386;2024-03-02T06:47:30;46.77;;;16.10;;
27209;SDS011;14721;42.668;23.386;2024-03-02T06:49:56;47.10;;;16.60;;
27209;SDS011;14721;42.668;23.386;2024-03-02T06:52:24;45.53;;;17.27;;
27209;SDS011;14721;42.668;23.386;2024-03-02T06:54:49;59.67;;;21.40;;
27209;SDS011;14721;42.668;23.386;2024-03-02T06:57:15;52.77;;;19.60;;
27209;SDS011;14721;42.668;23.386;2024-03-02T06:59:42;48.30;;;19.63;;
27209;SDS011;14721;42.668;23.386;2024-03-02T07:02:07;55.17;;;19.80;;
27209;SDS011;14721;42.668;23.386;2024-03-02T07:04:34;47.57;;;18.63;;
27209;SDS011;14721;42.668;23.386;2024-03-02T07:06:59;46.23;;;18.50;;
27209;SDS011;14721;42.668;23.386;2024-03-02T07:09:25;48.30;;;18.67;;
27209;SDS011;14721;42.668;23.386;2024-03-02T07:11:51;50.63;;;17.37;;
27209;SDS011;14721;42.668;23.386;2024-03-02T07:14:16;50.47;;;17.73;;
27209;SDS011;14721;42.668;23.386;2024-03-02T07:16:43;38.77;;;15.80;;
27209;SDS011;14721;42.668;23.386;2024-03-02T07:19:09;43.37;;;16.53;;
27209;SDS011;14721;42.668;23.386;2024-03-02T07:21:34;44.20;;;17.17;;
27209;SDS011;14721;42.668;23.386;2024-03-02T07:24:00;42.93;;;16.57;;
27209;SDS011;14721;42.668;23.386;2024-03-02T07:26:28;45.47;;;17.43;;
27209;SDS011;14721;42.668;23.386;2024-03-02T07:28:56;42.67;;;15.83;;
27209;SDS011;14721;42.668;23.386;2024-03-02T07:31:21;38.37;;;15.87;;
27209;SDS011;14721;42.668;23.386;2024-03-02T07:33:47;36.70;;;15.13;;
27209;SDS011;14721;42.668;23.386;2024-03-02T07:36:12;44.43;;;14.10;;
27209;SDS011;14721;42.668;23.386;2024-03-02T07:38:38;50.20;;;15.97;;
27209;SDS011;14721;42.668;23.386;2024-03-02T07:41:05;41.67;;;15.47;;
27209;SDS011;14721;42.668;23.386;2024-03-02T07:43:32;47.07;;;16.73;;
27209;SDS011;14721;42.668;23.386;2024-03-02T07:45:58;42.83;;;15.47;;
27209;SDS011;14721;42.668;23.386;2024-03-02T07:48:24;46.63;;;15.27;;
27209;SDS011;14721;42.668;23.386;2024-03-02T07:50:52;39.03;;;14.90;;
27209;SDS011;14721;42.668;23.386;2024-03-02T07:53:18;40.40;;;15.40;;
27209;SDS011;14721;42.668;23.386;2024-03-02T07:55:43;33.57;;;14.57;;
27209;SDS011;14721;42.668;23.386;2024-03-02T07:58:09;37.13;;;15.10;;
27209;SDS011;14721;42.668;23.386;2024-03-02T08:00:36;37.13;;;14.03;;
27209;SDS011;14721;42.668;23.386;2024-03-02T08:03:04;43.93;;;15.47;;
27209;SDS011;14721;42.668;23.386;2024-03-02T08:05:30;35.57;;;14.60;;
27209;SDS011;14721;42.668;23.386;2024-03-02T08:07:56;38.33;;;14.87;;
27209;SDS011;14721;42.668;23.386;2024-03-02T08:10:25;43.33;;;15.27;;
27209;SDS011;14721;42.668;23.386;2024-03-02T08:12:51;49.83;;;16.57;;
27209;SDS011;14721;42.668;23.386;2024-03-02T08:15:18;39.27;;;15.87;;
27209;SDS011;14721;42.668;23.386;2024-03-02T08:17:43;35.60;;;14.97;;
27209;SDS011;14721;42.668;23.386;2024-03-02T08:20:14;37.57;;;15.03;;
27209;SDS011;14721;42.668;23.386;2024-03-02T08:22:40;34.00;;;15.90;;
27209;SDS011;14721;42.668;23.386;2024-03-02T08:25:06;40.20;;;15.53;;
27209;SDS011;14721;42.668;23.386;2024-03-02T08:27:35;37.77;;;15.87;;
27209;SDS011;14721;42.668;23.386;2024-03-02T08:30:01;40.30;;;15.47;;
27209;SDS011;14721;42.668;23.386;2024-03-02T08:32:31;40.13;;;15.80;;
27209;SDS011;14721;42.668;23.386;2024-03-02T08:34:56;43.33;;;16.00;;
27209;SDS011;14721;42.668;23.386;2024-03-02T08:37:24;44.13;;;16.67;;
27209;SDS011;14721;42.668;23.386;2024-03-02T08:39:50;40.27;;;15.60;;
27209;SDS011;14721;42.668;23.386;2024-03-02T08:42:15;49.70;;;19.03;;
27209;SDS011;14721;42.668;23.386;2024-03-02T08:44:42;37.90;;;17.27;;
27209;SDS011;14721;42.668;23.386;2024-03-02T08:47:08;45.63;;;18.00;;
27209;SDS011;14721;42.668;23.386;2024-03-02T08:49:34;42.97;;;18.00;;
27209;SDS011;14721;42.668;23.386;2024-03-02T08:52:00;47.97;;;17.03;;
27209;SDS011;14721;42.668;23.386;2024-03-02T08:54:29;36.60;;;15.97;;
27209;SDS011;14721;42.668;23.386;2024-03-02T08:56:54;36.23;;;14.47;;
27209;SDS011;14721;42.668;23.386;2024-03-02T08:59:22;38.70;;;15.40;;
27209;SDS011;14721;42.668;23.386;2024-03-02T09:01:48;37.97;;;15.40;;
27209;SDS011;14721;42.668;23.386;2024-03-02T09:04:13;42.17;;;15.77;;
27209;SDS011;14721;42.668;23.386;2024-03-02T09:06:39;39.10;;;15.67;;
27209;SDS011;14721;42.668;23.386;2024-03-02T09:09:04;39.87;;;14.97;;
27209;SDS011;14721;42.668;23.386;2024-03-02T09:11:33;35.47;;;13.33;;
27209;SDS011;14721;42.668;23.386;2024-03-02T09:14:00;35.03;;;15.53;;
27209;SDS011;14721;42.668;23.386;2024-03-02T09:16:25;35.03;;;15.17;;
27209;SDS011;14721;42.668;23.386;2024-03-02T09:18:55;33.27;;;14.80;;
27209;SDS011;14721;42.668;23.386;2024-03-02T09:21:25;35.63;;;16.27;;
27209;SDS011;14721;42.668;23.386;2024-03-02T09:23:51;31.90;;;14.13;;
27209;SDS011;14721;42.668;23.386;2024-03-02T09:26:16;30.23;;;14.53;;
27209;SDS011;14721;42.668;23.386;2024-03-02T09:28:46;31.20;;;14.27;;
27209;SDS011;14721;42.668;23.386;2024-03-02T09:31:17;34.67;;;13.87;;
27209;SDS011;14721;42.668;23.386;2024-03-02T09:34:03;31.40;;;13.53;;
27209;SDS011;14721;42.668;23.386;2024-03-02T09:36:29;33.83;;;15.00;;
27209;SDS011;14721;42.668;23.386;2024-03-02T09:38:54;30.30;;;13.63;;
27209;SDS011;14721;42.668;23.386;2024-03-02T09:41:20;37.00;;;13.83;;
27209;SDS011;14721;42.668;23.386;2024-03-02T09:43:46;34.70;;;14.97;;
27209;SDS011;14721;42.668;23.386;2024-03-02T09:46:11;32.93;;;12.37;;
27209;SDS011;14721;42.668;23.386;2024-03-02T09:48:37;27.47;;;12.57;;
27209;SDS011;14721;42.668;23.386;2024-03-02T09:51:04;28.37;;;11.83;;
27209;SDS011;14721;42.668;23.386;2024-03-02T09:53:31;33.70;;;12.97;;
27209;SDS011;14721;42.668;23.386;2024-03-02T09:55:58;30.50;;;12.80;;
27209;SDS011;14721;42.668;23.386;2024-03-02T09:58:24;30.00;;;13.30;;
27209;SDS011;14721;42.668;23.386;2024-03-02T10:00:50;38.87;;;15.90;;
27209;SDS011;14721;42.668;23.386;2024-03-02T10:03:15;33.60;;;13.43;;
27209;SDS011;14721;42.668;23.386;2024-03-02T10:05:44;30.80;;;12.93;;
27209;SDS011;14721;42.668;23.386;2024-03-02T10:08:09;31.40;;;13.37;;
27209;SDS011;14721;42.668;23.386;2024-03-02T10:10:39;30.20;;;12.17;;
27209;SDS011;14721;42.668;23.386;2024-03-02T10:13:14;39.03;;;14.30;;
27209;SDS011;14721;42.668;23.386;2024-03-02T10:15:43;26.93;;;11.93;;
27209;SDS011;14721;42.668;23.386;2024-03-02T10:18:12;28.07;;;12.23;;
27209;SDS011;14721;42.668;23.386;2024-03-02T10:20:39;28.47;;;12.97;;
27209;SDS011;14721;42.668;23.386;2024-03-02T10:23:13;23.70;;;11.53;;
27209;SDS011;14721;42.668;23.386;2024-03-02T10:25:39;23.40;;;10.83;;
27209;SDS011;14721;42.668;23.386;2024-03-02T10:28:05;31.47;;;11.60;;
27209;SDS011;14721;42.668;23.386;2024-03-02T10:30:31;25.53;;;10.40;;
27209;SDS011;14721;42.668;23.386;2024-03-02T10:32:58;32.67;;;12.63;;
27209;SDS011;14721;42.668;23.386;2024-03-02T10:35:23;25.93;;;10.93;;
27209;SDS011;14721;42.668;23.386;2024-03-02T10:37:50;23.00;;;11.20;;
27209;SDS011;14721;42.668;23.386;2024-03-02T10:40:17;25.63;;;10.20;;
27209;SDS011;14721;42.668;23.386;2024-03-02T10:42:43;23.53;;;9.60;;
27209;SDS011;14721;42.668;23.386;2024-03-02T10:45:11;26.53;;;11.73;;
27209;SDS011;14721;42.668;23.386;2024-03-02T10:47:38;24.00;;;10.27;;
27209;SDS011;14721;42.668;23.386;2024-03-02T10:50:06;21.77;;;9.80;;
27209;SDS011;14721;42.668;23.386;2024-03-02T10:52:36;19.00;;;10.07;;
27209;SDS011;14721;42.668;23.386;2024-03-02T10:55:02;18.83;;;8.90;;
27209;SDS011;14721;42.668;23.386;2024-03-02T10:57:37;21.47;;;10.53;;
27209;SDS011;14721;42.668;23.386;2024-03-02T11:00:05;21.33;;;10.30;;
27209;SDS011;14721;42.668;23.386;2024-03-02T11:02:33;21.40;;;9.23;;
27209;SDS011;14721;42.668;23.386;2024-03-02T11:05:03;22.13;;;8.47;;
27209;SDS011;14721;42.668;23.386;2024-03-02T11:07:32;20.53;;;9.23;;
27209;SDS011;14721;42.668;23.386;2024-03-02T11:10:01;24.80;;;9.07;;
27209;SDS011;14721;42.668;23.386;2024-03-02T11:12:41;19.27;;;8.93;;
27209;SDS011;14721;42.668;23.386;2024-03-02T11:15:16;26.00;;;9.93;;
27209;SDS011;14721;42.668;23.386;2024-03-02T11:17:46;19.33;;;9.10;;
27209;SDS011;14721;42.668;23.386;2024-03-02T11:20:13;21.00;;;8.83;;
27209;SDS011;14721;42.668;23.386;2024-03-02T11:22:40;18.53;;;9.20;;
27209;SDS011;14721;42.668;23.386;2024-03-02T11:25:05;23.40;;;9.47;;
27209;SDS011;14721;42.668;23.386;2024-03-02T11:32:59;19.10;;;9.00;;
27209;SDS011;14721;42.668;23.386;2024-03-02T11:35:27;21.13;;;8.57;;
27209;SDS011;14721;42.668;23.386;2024-03-02T11:38:00;20.17;;;9.03;;
27209;SDS011;14721;42.668;23.386;2024-03-02T11:40:28;22.10;;;9.10;;
27209;SDS011;14721;42.668;23.386;2024-03-02T11:42:54;18.07;;;8.63;;
27209;SDS011;14721;42.668;23.386;2024-03-02T11:45:26;18.70;;;7.87;;
27209;SDS011;14721;42.668;23.386;2024-03-02T11:47:57;16.53;;;8.43;;
27209;SDS011;14721;42.668;23.386;2024-03-02T11:50:29;18.13;;;8.60;;
27209;SDS011;14721;42.668;23.386;2024-03-02T11:53:09;15.47;;;7.40;;
27209;SDS011;14721;42.668;23.386;2024-03-02T11:55:37;16.60;;;8.30;;
27209;SDS011;14721;42.668;23.386;2024-03-02T11:58:04;32.53;;;14.27;;
27209;SDS011;14721;42.668;23.386;2024-03-02T12:00:30;16.80;;;7.87;;
27209;SDS011;14721;42.668;23.386;2024-03-02T12:03:03;16.07;;;8.43;;
27209;SDS011;14721;42.668;23.386;2024-03-02T12:05:30;16.80;;;7.63;;
27209;SDS011;14721;42.668;23.386;2024-03-02T12:07:57;15.90;;;7.90;;
27209;SDS011;14721;42.668;23.386;2024-03-02T12:10:23;17.60;;;7.40;;
27209;SDS011;14721;42.668;23.386;2024-03-02T12:12:54;14.00;;;7.23;;
27209;SDS011;14721;42.668;23.386;2024-03-02T12:15:24;19.33;;;7.67;;
27209;SDS011;14721;42.668;23.386;2024-03-02T12:17:58;17.43;;;8.00;;
27209;SDS011;14721;42.668;23.386;2024-03-02T12:20:30;16.50;;;7.57;;
27209;SDS011;14721;42.668;23.386;2024-03-02T12:23:00;16.63;;;8.27;;
27209;SDS011;14721;42.668;23.386;2024-03-02T12:25:27;14.23;;;7.30;;
27209;SDS011;14721;42.668;23.386;2024-03-02T12:27:54;12.60;;;6.97;;
27209;SDS011;14721;42.668;23.386;2024-03-02T12:30:22;16.20;;;7.23;;
27209;SDS011;14721;42.668;23.386;2024-03-02T12:32:48;13.83;;;6.43;;
27209;SDS011;14721;42.668;23.386;2024-03-02T12:35:16;13.20;;;6.80;;
27209;SDS011;14721;42.668;23.386;2024-03-02T12:37:50;11.27;;;6.10;;
27209;SDS011;14721;42.668;23.386;2024-03-02T12:40:18;13.13;;;7.23;;
27209;SDS011;14721;42.668;23.386;2024-03-02T12:42:47;14.57;;;7.83;;
27209;SDS011;14721;42.668;23.386;2024-03-02T12:45:13;12.67;;;6.20;;
27209;SDS011;14721;42.668;23.386;2024-03-02T12:47:40;13.03;;;6.60;;
27209;SDS011;14721;42.668;23.386;2024-03-02T12:50:07;15.00;;;7.00;;
27209;SDS011;14721;42.668;23.386;2024-03-02T12:52:33;13.73;;;7.30;;
27209;SDS011;14721;42.668;23.386;2024-03-02T12:54:59;14.67;;;7.10;;
27209;SDS011;14721;42.668;23.386;2024-03-02T12:57:26;14.40;;;6.97;;
27209;SDS011;14721;42.668;23.386;2024-03-02T12:59:57;16.20;;;7.10;;
27209;SDS011;14721;42.668;23.386;2024-03-02T13:02:27;15.77;;;7.53;;
27209;SDS011;14721;42.668;23.386;2024-03-02T13:04:54;18.27;;;7.93;;
27209;SDS011;14721;42.668;23.386;2024-03-02T13:07:20;14.63;;;7.50;;
27209;SDS011;14721;42.668;23.386;2024-03-02T13:09:53;15.83;;;7.77;;
27209;SDS011;14721;42.668;23.386;2024-03-02T13:12:21;12.77;;;6.20;;
27209;SDS011;14721;42.668;23.386;2024-03-02T13:14:48;18.40;;;7.90;;
27209;SDS011;14721;42.668;23.386;2024-03-02T13:17:17;17.60;;;7.17;;
27209;SDS011;14721;42.668;23.386;2024-03-02T13:19:52;14.73;;;7.80;;
27209;SDS011;14721;42.668;23.386;2024-03-02T13:22:21;12.63;;;6.60;;
27209;SDS011;14721;42.668;23.386;2024-03-02T13:24:47;13.90;;;7.43;;
27209;SDS011;14721;42.668;23.386;2024-03-02T13:27:13;17.63;;;7.23;;
27209;SDS011;14721;42.668;23.386;2024-03-02T13:29:39;16.53;;;7.60;;
27209;SDS011;14721;42.668;23.386;2024-03-02T13:32:04;16.43;;;8.10;;
27209;SDS011;14721;42.668;23.386;2024-03-02T13:34:30;17.27;;;7.87;;
27209;SDS011;14721;42.668;23.386;2024-03-02T13:36:56;15.90;;;7.77;;
27209;SDS011;14721;42.668;23.386;2024-03-02T13:39:21;16.13;;;7.97;;
27209;SDS011;14721;42.668;23.386;2024-03-02T13:41:48;15.07;;;7.83;;
27209;SDS011;14721;42.668;23.386;2024-03-02T13:44:21;16.57;;;7.93;;
27209;SDS011;14721;42.668;23.386;2024-03-02T13:46:47;15.63;;;7.67;;
27209;SDS011;14721;42.668;23.386;2024-03-02T13:49:13;16.27;;;8.87;;
27209;SDS011;14721;42.668;23.386;2024-03-02T13:51:39;15.93;;;7.93;;
27209;SDS011;14721;42.668;23.386;2024-03-02T13:54:05;19.20;;;8.07;;
27209;SDS011;14721;42.668;23.386;2024-03-02T13:56:30;15.03;;;6.83;;
27209;SDS011;14721;42.668;23.386;2024-03-02T13:58:57;17.27;;;8.07;;
27209;SDS011;14721;42.668;23.386;2024-03-02T14:01:23;16.33;;;7.80;;
27209;SDS011;14721;42.668;23.386;2024-03-02T14:03:49;14.30;;;7.50;;
27209;SDS011;14721;42.668;23.386;2024-03-02T14:06:14;17.47;;;8.80;;
27209;SDS011;14721;42.668;23.386;2024-03-02T14:08:40;14.80;;;7.43;;
27209;SDS011;14721;42.668;23.386;2024-03-02T14:11:09;15.10;;;7.23;;
27209;SDS011;14721;42.668;23.386;2024-03-02T14:13:40;15.20;;;8.50;;
27209;SDS011;14721;42.668;23.386;2024-03-02T14:18:41;14.93;;;7.60;;
27209;SDS011;14721;42.668;23.386;2024-03-02T14:21:31;21.03;;;7.87;;
27209;SDS011;14721;42.668;23.386;2024-03-02T14:24:07;15.17;;;7.87;;
27209;SDS011;14721;42.668;23.386;2024-03-02T14:27:05;19.77;;;8.33;;
27209;SDS011;14721;42.668;23.386;2024-03-02T14:29:44;19.77;;;9.27;;